sensor_id;sensor_type;location;lat;lon;timestamp;P1;durP1;ratioP1;P2;durP2;ratioP2
58196;SDS011;43999;51.660;5.616;2023-01-29T00:01:07;25.52;;;21.42;;
58196;SDS011;43999;51.660;5.616;2023-01-29T00:03:36;26.90;;;19.73;;
58196;SDS011;43999;51.660;5.616;2023-01-29T00:06:10;26.92;;;19.20;;
58196;SDS011;43999;51.660;5.616;2023-01-29T00:09:03;32.17;;;24.02;;
58196;SDS011;43999;51.660;5.616;2023-01-29T00:11:44;27.70;;;22.75;;
58196;SDS011;43999;51.660;5.616;2023-01-29T00:14:13;27.58;;;22.80;;
58196;SDS011;43999;51.660;5.616;2023-01-29T00:16:43;29.90;;;22.80;;
58196;SDS011;43999;51.660;5.616;2023-01-29T00:19:14;32.45;;;24.35;;
58196;SDS011;43999;51.660;5.616;2023-01-29T00:21:44;27.48;;;22.80;;
58196;SDS011;43999;51.660;5.616;2023-01-29T00:24:12;27.10;;;22.55;;
58196;SDS011;43999;51.660;5.616;2023-01-29T00:26:41;29.67;;;22.13;;
58196;SDS011;43999;51.660;5.616;2023-01-29T00:29:11;29.65;;;21.80;;
58196;SDS011;43999;51.660;5.616;2023-01-29T00:31:43;32.40;;;23.05;;
58196;SDS011;43999;51.660;5.616;2023-01-29T00:34:14;27.45;;;22.00;;
58196;SDS011;43999;51.660;5.616;2023-01-29T00:36:44;28.17;;;23.50;;
58196;SDS011;43999;51.660;5.616;2023-01-29T00:39:14;44.15;;;26.85;;
58196;SDS011;43999;51.660;5.616;2023-01-29T00:41:46;30.10;;;22.92;;
58196;SDS011;43999;51.660;5.616;2023-01-29T00:44:34;27.70;;;22.45;;
58196;SDS011;43999;51.660;5.616;2023-01-29T00:47:22;26.85;;;21.35;;
58196;SDS011;43999;51.660;5.616;2023-01-29T00:50:00;29.85;;;22.80;;
58196;SDS011;43999;51.660;5.616;2023-01-29T00:52:30;31.95;;;24.05;;
58196;SDS011;43999;51.660;5.616;2023-01-29T00:54:59;27.98;;;23.63;;
58196;SDS011;43999;51.660;5.616;2023-01-29T00:57:28;32.75;;;22.58;;
58196;SDS011;43999;51.660;5.616;2023-01-29T01:00:08;32.22;;;23.02;;
58196;SDS011;43999;51.660;5.616;2023-01-29T01:02:45;27.05;;;21.20;;
58196;SDS011;43999;51.660;5.616;2023-01-29T01:05:32;26.88;;;20.52;;
58196;SDS011;43999;51.660;5.616;2023-01-29T01:08:05;24.13;;;19.90;;
58196;SDS011;43999;51.660;5.616;2023-01-29T01:11:00;29.65;;;20.70;;
58196;SDS011;43999;51.660;5.616;2023-01-29T01:13:32;24.55;;;21.65;;
58196;SDS011;43999;51.660;5.616;2023-01-29T01:16:10;27.15;;;23.20;;
58196;SDS011;43999;51.660;5.616;2023-01-29T01:18:41;30.60;;;21.73;;
58196;SDS011;43999;51.660;5.616;2023-01-29T01:21:12;27.95;;;22.80;;
58196;SDS011;43999;51.660;5.616;2023-01-29T01:23:41;30.27;;;21.77;;
58196;SDS011;43999;51.660;5.616;2023-01-29T01:26:15;32.08;;;22.63;;
58196;SDS011;43999;51.660;5.616;2023-01-29T01:28:45;30.10;;;23.33;;
58196;SDS011;43999;51.660;5.616;2023-01-29T01:31:16;29.50;;;20.52;;
58196;SDS011;43999;51.660;5.616;2023-01-29T01:33:53;29.02;;;23.05;;
58196;SDS011;43999;51.660;5.616;2023-01-29T01:36:28;28.73;;;20.48;;
58196;SDS011;43999;51.660;5.616;2023-01-29T01:38:57;26.35;;;20.95;;
58196;SDS011;43999;51.660;5.616;2023-01-29T01:41:32;27.83;;;22.33;;
58196;SDS011;43999;51.660;5.616;2023-01-29T01:46:35;24.00;;;19.95;;
58196;SDS011;43999;51.660;5.616;2023-01-29T01:49:04;26.45;;;22.00;;
58196;SDS011;43999;51.660;5.616;2023-01-29T01:51:51;29.17;;;22.35;;
58196;SDS011;43999;51.660;5.616;2023-01-29T01:54:23;26.65;;;19.55;;
58196;SDS011;43999;51.660;5.616;2023-01-29T01:57:06;28.90;;;21.63;;
58196;SDS011;43999;51.660;5.616;2023-01-29T01:59:48;29.92;;;21.55;;
58196;SDS011;43999;51.660;5.616;2023-01-29T02:02:43;27.17;;;22.42;;
58196;SDS011;43999;51.660;5.616;2023-01-29T02:05:33;30.00;;;20.92;;
58196;SDS011;43999;51.660;5.616;2023-01-29T02:08:29;25.65;;;21.17;;
58196;SDS011;43999;51.660;5.616;2023-01-29T02:14:21;25.30;;;19.95;;
58196;SDS011;43999;51.660;5.616;2023-01-29T02:16:51;30.30;;;22.27;;
58196;SDS011;43999;51.660;5.616;2023-01-29T02:22:45;27.33;;;17.80;;
58196;SDS011;43999;51.660;5.616;2023-01-29T02:30:58;24.00;;;19.17;;
58196;SDS011;43999;51.660;5.616;2023-01-29T02:42:18;26.00;;;18.33;;
58196;SDS011;43999;51.660;5.616;2023-01-29T02:45:09;25.90;;;19.88;;
58196;SDS011;43999;51.660;5.616;2023-01-29T02:47:56;23.90;;;14.52;;
58196;SDS011;43999;51.660;5.616;2023-01-29T02:50:43;23.45;;;17.45;;
58196;SDS011;43999;51.660;5.616;2023-01-29T02:53:23;27.13;;;20.27;;
58196;SDS011;43999;51.660;5.616;2023-01-29T02:59:36;23.17;;;17.40;;
58196;SDS011;43999;51.660;5.616;2023-01-29T03:02:11;26.15;;;18.92;;
58196;SDS011;43999;51.660;5.616;2023-01-29T03:04:50;26.35;;;19.77;;
58196;SDS011;43999;51.660;5.616;2023-01-29T03:07:28;25.73;;;20.35;;
58196;SDS011;43999;51.660;5.616;2023-01-29T03:10:22;26.20;;;18.88;;
58196;SDS011;43999;51.660;5.616;2023-01-29T03:13:28;24.02;;;19.38;;
58196;SDS011;43999;51.660;5.616;2023-01-29T03:16:22;27.90;;;19.52;;
58196;SDS011;43999;51.660;5.616;2023-01-29T03:22:06;23.35;;;17.75;;
58196;SDS011;43999;51.660;5.616;2023-01-29T03:24:45;26.52;;;19.27;;
58196;SDS011;43999;51.660;5.616;2023-01-29T03:27:48;25.60;;;18.83;;
58196;SDS011;43999;51.660;5.616;2023-01-29T03:30:44;29.52;;;19.15;;
58196;SDS011;43999;51.660;5.616;2023-01-29T03:33:42;25.25;;;18.48;;
58196;SDS011;43999;51.660;5.616;2023-01-29T03:36:26;24.38;;;19.48;;
58196;SDS011;43999;51.660;5.616;2023-01-29T03:39:06;27.60;;;20.42;;
58196;SDS011;43999;51.660;5.616;2023-01-29T03:50:47;25.10;;;18.83;;
58196;SDS011;43999;51.660;5.616;2023-01-29T03:53:56;25.90;;;20.33;;
58196;SDS011;43999;51.660;5.616;2023-01-29T03:56:43;26.50;;;21.15;;
58196;SDS011;43999;51.660;5.616;2023-01-29T03:59:31;29.70;;;20.08;;
58196;SDS011;43999;51.660;5.616;2023-01-29T04:05:25;28.23;;;18.98;;
58196;SDS011;43999;51.660;5.616;2023-01-29T04:08:13;26.48;;;20.33;;
58196;SDS011;43999;51.660;5.616;2023-01-29T04:10:51;29.85;;;22.95;;
58196;SDS011;43999;51.660;5.616;2023-01-29T04:16:09;29.48;;;21.33;;
58196;SDS011;43999;51.660;5.616;2023-01-29T04:19:06;28.77;;;19.77;;
58196;SDS011;43999;51.660;5.616;2023-01-29T04:21:43;31.67;;;23.50;;
58196;SDS011;43999;51.660;5.616;2023-01-29T04:24:15;25.77;;;21.85;;
58196;SDS011;43999;51.660;5.616;2023-01-29T04:30:25;30.00;;;21.10;;
58196;SDS011;43999;51.660;5.616;2023-01-29T04:35:52;24.88;;;20.52;;
58196;SDS011;43999;51.660;5.616;2023-01-29T04:38:36;29.75;;;20.38;;
58196;SDS011;43999;51.660;5.616;2023-01-29T04:41:28;30.38;;;23.13;;
58196;SDS011;43999;51.660;5.616;2023-01-29T04:50:15;26.55;;;22.30;;
58196;SDS011;43999;51.660;5.616;2023-01-29T04:53:09;32.42;;;23.50;;
58196;SDS011;43999;51.660;5.616;2023-01-29T04:56:40;31.75;;;22.50;;
58196;SDS011;43999;51.660;5.616;2023-01-29T04:58:53;30.70;;;23.23;;
58196;SDS011;43999;51.660;5.616;2023-01-29T05:02:11;30.75;;;24.52;;
58196;SDS011;43999;51.660;5.616;2023-01-29T05:04:40;34.10;;;24.95;;
58196;SDS011;43999;51.660;5.616;2023-01-29T05:07:13;28.27;;;23.50;;
58196;SDS011;43999;51.660;5.616;2023-01-29T05:09:45;32.97;;;24.27;;
58196;SDS011;43999;51.660;5.616;2023-01-29T05:12:17;33.35;;;24.73;;
58196;SDS011;43999;51.660;5.616;2023-01-29T05:14:45;32.83;;;24.40;;
58196;SDS011;43999;51.660;5.616;2023-01-29T05:17:15;29.83;;;22.70;;
58196;SDS011;43999;51.660;5.616;2023-01-29T05:19:45;32.65;;;24.33;;
58196;SDS011;43999;51.660;5.616;2023-01-29T05:22:17;35.72;;;27.17;;
58196;SDS011;43999;51.660;5.616;2023-01-29T05:24:59;33.35;;;23.55;;
58196;SDS011;43999;51.660;5.616;2023-01-29T05:27:32;32.78;;;24.20;;
58196;SDS011;43999;51.660;5.616;2023-01-29T05:30:20;32.22;;;25.25;;
58196;SDS011;43999;51.660;5.616;2023-01-29T05:32:48;37.35;;;26.70;;
58196;SDS011;43999;51.660;5.616;2023-01-29T05:35:15;37.63;;;26.08;;
58196;SDS011;43999;51.660;5.616;2023-01-29T05:37:43;34.45;;;25.10;;
58196;SDS011;43999;51.660;5.616;2023-01-29T05:40:14;37.20;;;27.95;;
58196;SDS011;43999;51.660;5.616;2023-01-29T05:42:43;31.00;;;23.77;;
58196;SDS011;43999;51.660;5.616;2023-01-29T05:45:11;38.83;;;26.70;;
58196;SDS011;43999;51.660;5.616;2023-01-29T05:47:46;38.85;;;24.15;;
58196;SDS011;43999;51.660;5.616;2023-01-29T05:50:16;31.52;;;24.98;;
58196;SDS011;43999;51.660;5.616;2023-01-29T05:52:48;37.17;;;26.38;;
58196;SDS011;43999;51.660;5.616;2023-01-29T05:55:24;36.42;;;28.95;;
58196;SDS011;43999;51.660;5.616;2023-01-29T05:57:52;34.65;;;25.27;;
58196;SDS011;43999;51.660;5.616;2023-01-29T06:00:22;33.28;;;24.90;;
58196;SDS011;43999;51.660;5.616;2023-01-29T06:02:51;38.60;;;28.05;;
58196;SDS011;43999;51.660;5.616;2023-01-29T06:05:20;35.95;;;26.23;;
58196;SDS011;43999;51.660;5.616;2023-01-29T06:07:53;30.45;;;25.60;;
58196;SDS011;43999;51.660;5.616;2023-01-29T06:10:23;33.38;;;27.25;;
58196;SDS011;43999;51.660;5.616;2023-01-29T06:12:51;34.42;;;26.27;;
58196;SDS011;43999;51.660;5.616;2023-01-29T06:15:21;34.35;;;25.60;;
58196;SDS011;43999;51.660;5.616;2023-01-29T06:17:55;33.70;;;25.52;;
58196;SDS011;43999;51.660;5.616;2023-01-29T06:20:32;35.83;;;26.50;;
58196;SDS011;43999;51.660;5.616;2023-01-29T06:23:00;40.75;;;27.15;;
58196;SDS011;43999;51.660;5.616;2023-01-29T06:25:32;37.35;;;27.63;;
58196;SDS011;43999;51.660;5.616;2023-01-29T06:28:08;39.00;;;28.93;;
58196;SDS011;43999;51.660;5.616;2023-01-29T06:30:42;40.42;;;29.10;;
58196;SDS011;43999;51.660;5.616;2023-01-29T06:33:14;40.10;;;29.10;;
58196;SDS011;43999;51.660;5.616;2023-01-29T06:35:48;35.90;;;26.50;;
58196;SDS011;43999;51.660;5.616;2023-01-29T06:38:26;34.47;;;25.98;;
58196;SDS011;43999;51.660;5.616;2023-01-29T06:40:56;34.25;;;26.50;;
58196;SDS011;43999;51.660;5.616;2023-01-29T06:43:27;32.85;;;28.38;;
58196;SDS011;43999;51.660;5.616;2023-01-29T06:46:10;37.22;;;26.80;;
58196;SDS011;43999;51.660;5.616;2023-01-29T06:48:40;40.58;;;27.27;;
58196;SDS011;43999;51.660;5.616;2023-01-29T06:51:14;36.70;;;26.77;;
58196;SDS011;43999;51.660;5.616;2023-01-29T06:53:43;38.22;;;28.13;;
58196;SDS011;43999;51.660;5.616;2023-01-29T06:56:14;35.80;;;26.85;;
58196;SDS011;43999;51.660;5.616;2023-01-29T06:58:46;41.83;;;30.73;;
58196;SDS011;43999;51.660;5.616;2023-01-29T07:01:18;40.85;;;31.10;;
58196;SDS011;43999;51.660;5.616;2023-01-29T07:04:02;36.75;;;29.27;;
58196;SDS011;43999;51.660;5.616;2023-01-29T07:06:31;42.17;;;27.88;;
58196;SDS011;43999;51.660;5.616;2023-01-29T07:09:06;38.25;;;25.55;;
58196;SDS011;43999;51.660;5.616;2023-01-29T07:11:37;37.90;;;28.17;;
58196;SDS011;43999;51.660;5.616;2023-01-29T07:14:06;38.88;;;30.60;;
58196;SDS011;43999;51.660;5.616;2023-01-29T07:16:36;35.22;;;27.15;;
58196;SDS011;43999;51.660;5.616;2023-01-29T07:19:05;38.15;;;29.63;;
58196;SDS011;43999;51.660;5.616;2023-01-29T07:21:44;39.25;;;28.90;;
58196;SDS011;43999;51.660;5.616;2023-01-29T07:24:12;39.75;;;29.65;;
58196;SDS011;43999;51.660;5.616;2023-01-29T07:26:42;40.40;;;29.27;;
58196;SDS011;43999;51.660;5.616;2023-01-29T07:29:11;37.50;;;30.02;;
58196;SDS011;43999;51.660;5.616;2023-01-29T07:31:40;39.88;;;28.48;;
58196;SDS011;43999;51.660;5.616;2023-01-29T07:34:11;33.55;;;26.63;;
58196;SDS011;43999;51.660;5.616;2023-01-29T07:36:39;35.83;;;26.92;;
58196;SDS011;43999;51.660;5.616;2023-01-29T07:39:09;33.65;;;28.42;;
58196;SDS011;43999;51.660;5.616;2023-01-29T07:41:37;35.28;;;27.80;;
58196;SDS011;43999;51.660;5.616;2023-01-29T07:44:14;32.75;;;25.48;;
58196;SDS011;43999;51.660;5.616;2023-01-29T07:46:48;37.17;;;28.85;;
58196;SDS011;43999;51.660;5.616;2023-01-29T07:49:26;36.88;;;29.85;;
58196;SDS011;43999;51.660;5.616;2023-01-29T07:51:56;37.33;;;27.63;;
58196;SDS011;43999;51.660;5.616;2023-01-29T07:54:31;37.00;;;29.10;;
58196;SDS011;43999;51.660;5.616;2023-01-29T07:57:02;39.38;;;29.60;;
58196;SDS011;43999;51.660;5.616;2023-01-29T07:59:30;40.70;;;29.02;;
58196;SDS011;43999;51.660;5.616;2023-01-29T08:01:58;37.05;;;28.17;;
58196;SDS011;43999;51.660;5.616;2023-01-29T08:04:29;41.00;;;31.15;;
58196;SDS011;43999;51.660;5.616;2023-01-29T08:06:58;35.65;;;29.63;;
58196;SDS011;43999;51.660;5.616;2023-01-29T08:09:30;40.65;;;29.75;;
58196;SDS011;43999;51.660;5.616;2023-01-29T08:12:01;42.63;;;28.40;;
58196;SDS011;43999;51.660;5.616;2023-01-29T08:14:34;38.80;;;28.30;;
58196;SDS011;43999;51.660;5.616;2023-01-29T08:17:03;39.53;;;28.60;;
58196;SDS011;43999;51.660;5.616;2023-01-29T08:19:43;35.83;;;27.30;;
58196;SDS011;43999;51.660;5.616;2023-01-29T08:22:14;39.20;;;28.63;;
58196;SDS011;43999;51.660;5.616;2023-01-29T08:24:42;39.13;;;27.83;;
58196;SDS011;43999;51.660;5.616;2023-01-29T08:27:27;37.03;;;29.08;;
58196;SDS011;43999;51.660;5.616;2023-01-29T08:29:56;40.92;;;29.80;;
58196;SDS011;43999;51.660;5.616;2023-01-29T08:32:24;35.22;;;26.98;;
58196;SDS011;43999;51.660;5.616;2023-01-29T08:35:02;41.40;;;31.08;;
58196;SDS011;43999;51.660;5.616;2023-01-29T08:37:31;37.53;;;29.65;;
58196;SDS011;43999;51.660;5.616;2023-01-29T08:40:02;39.97;;;27.48;;
58196;SDS011;43999;51.660;5.616;2023-01-29T08:42:30;34.75;;;27.90;;
58196;SDS011;43999;51.660;5.616;2023-01-29T08:44:59;38.67;;;28.38;;
58196;SDS011;43999;51.660;5.616;2023-01-29T08:47:27;37.00;;;29.08;;
58196;SDS011;43999;51.660;5.616;2023-01-29T08:49:56;36.97;;;26.20;;
58196;SDS011;43999;51.660;5.616;2023-01-29T08:52:28;36.03;;;26.02;;
58196;SDS011;43999;51.660;5.616;2023-01-29T08:55:01;33.67;;;26.52;;
58196;SDS011;43999;51.660;5.616;2023-01-29T08:57:37;35.58;;;29.38;;
58196;SDS011;43999;51.660;5.616;2023-01-29T09:00:09;37.13;;;27.35;;
58196;SDS011;43999;51.660;5.616;2023-01-29T09:02:37;33.65;;;25.98;;
58196;SDS011;43999;51.660;5.616;2023-01-29T09:05:12;35.03;;;25.30;;
58196;SDS011;43999;51.660;5.616;2023-01-29T09:07:40;33.00;;;26.15;;
58196;SDS011;43999;51.660;5.616;2023-01-29T09:10:09;32.00;;;25.67;;
58196;SDS011;43999;51.660;5.616;2023-01-29T09:12:41;37.85;;;29.30;;
58196;SDS011;43999;51.660;5.616;2023-01-29T09:15:09;30.17;;;26.73;;
58196;SDS011;43999;51.660;5.616;2023-01-29T09:17:43;34.17;;;26.25;;
58196;SDS011;43999;51.660;5.616;2023-01-29T09:20:11;29.85;;;26.27;;
58196;SDS011;43999;51.660;5.616;2023-01-29T09:22:52;37.35;;;29.52;;
58196;SDS011;43999;51.660;5.616;2023-01-29T09:25:32;32.85;;;26.13;;
58196;SDS011;43999;51.660;5.616;2023-01-29T09:28:49;36.53;;;26.63;;
58196;SDS011;43999;51.660;5.616;2023-01-29T09:31:29;37.80;;;28.80;;
58196;SDS011;43999;51.660;5.616;2023-01-29T09:34:01;33.42;;;26.13;;
58196;SDS011;43999;51.660;5.616;2023-01-29T09:36:36;28.88;;;24.77;;
58196;SDS011;43999;51.660;5.616;2023-01-29T09:39:04;33.58;;;26.83;;
58196;SDS011;43999;51.660;5.616;2023-01-29T09:41:54;31.75;;;25.60;;
58196;SDS011;43999;51.660;5.616;2023-01-29T09:47:32;31.55;;;24.88;;
58196;SDS011;43999;51.660;5.616;2023-01-29T09:50:17;33.53;;;24.05;;
58196;SDS011;43999;51.660;5.616;2023-01-29T09:52:52;28.92;;;24.90;;
58196;SDS011;43999;51.660;5.616;2023-01-29T09:56:00;30.23;;;24.07;;
58196;SDS011;43999;51.660;5.616;2023-01-29T09:58:39;31.35;;;26.15;;
58196;SDS011;43999;51.660;5.616;2023-01-29T10:01:26;30.63;;;23.30;;
58196;SDS011;43999;51.660;5.616;2023-01-29T10:10:26;29.55;;;23.40;;
58196;SDS011;43999;51.660;5.616;2023-01-29T10:14:16;26.88;;;22.73;;
58196;SDS011;43999;51.660;5.616;2023-01-29T10:23:47;26.67;;;20.55;;
58196;SDS011;43999;51.660;5.616;2023-01-29T10:26:45;24.70;;;19.63;;
58196;SDS011;43999;51.660;5.616;2023-01-29T10:29:33;27.42;;;23.38;;
58196;SDS011;43999;51.660;5.616;2023-01-29T10:32:02;29.65;;;25.02;;
58196;SDS011;43999;51.660;5.616;2023-01-29T10:34:52;24.38;;;20.98;;
58196;SDS011;43999;51.660;5.616;2023-01-29T10:37:39;28.02;;;22.25;;
58196;SDS011;43999;51.660;5.616;2023-01-29T10:43:19;26.13;;;23.38;;
58196;SDS011;43999;51.660;5.616;2023-01-29T10:55:58;25.13;;;21.17;;
58196;SDS011;43999;51.660;5.616;2023-01-29T10:59:08;23.88;;;21.35;;
58196;SDS011;43999;51.660;5.616;2023-01-29T11:02:16;26.67;;;23.63;;
58196;SDS011;43999;51.660;5.616;2023-01-29T11:04:47;23.13;;;20.77;;
58196;SDS011;43999;51.660;5.616;2023-01-29T11:08:01;23.98;;;21.40;;
58196;SDS011;43999;51.660;5.616;2023-01-29T11:13:34;22.75;;;19.95;;
58196;SDS011;43999;51.660;5.616;2023-01-29T11:16:30;24.67;;;20.17;;
58196;SDS011;43999;51.660;5.616;2023-01-29T11:19:17;26.55;;;20.85;;
58196;SDS011;43999;51.660;5.616;2023-01-29T11:22:13;26.13;;;21.52;;
58196;SDS011;43999;51.660;5.616;2023-01-29T11:30:55;23.75;;;20.55;;
58196;SDS011;43999;51.660;5.616;2023-01-29T11:33:52;24.38;;;20.58;;
58196;SDS011;43999;51.660;5.616;2023-01-29T11:36:55;26.42;;;21.52;;
58196;SDS011;43999;51.660;5.616;2023-01-29T11:39:49;24.48;;;20.83;;
58196;SDS011;43999;51.660;5.616;2023-01-29T11:42:37;22.17;;;17.95;;
58196;SDS011;43999;51.660;5.616;2023-01-29T11:48:00;20.48;;;18.27;;
58196;SDS011;43999;51.660;5.616;2023-01-29T11:50:31;26.40;;;21.48;;
58196;SDS011;43999;51.660;5.616;2023-01-29T11:53:04;24.80;;;18.40;;
58196;SDS011;43999;51.660;5.616;2023-01-29T11:55:59;27.77;;;21.98;;
58196;SDS011;43999;51.660;5.616;2023-01-29T11:58:31;24.00;;;20.63;;
58196;SDS011;43999;51.660;5.616;2023-01-29T12:01:02;24.30;;;21.63;;
58196;SDS011;43999;51.660;5.616;2023-01-29T12:03:48;24.80;;;18.38;;
58196;SDS011;43999;51.660;5.616;2023-01-29T12:06:23;21.80;;;19.27;;
58196;SDS011;43999;51.660;5.616;2023-01-29T12:09:09;24.35;;;19.77;;
58196;SDS011;43999;51.660;5.616;2023-01-29T12:15:20;23.88;;;21.38;;
58196;SDS011;43999;51.660;5.616;2023-01-29T12:17:59;24.35;;;19.80;;
58196;SDS011;43999;51.660;5.616;2023-01-29T12:20:44;22.20;;;19.80;;
58196;SDS011;43999;51.660;5.616;2023-01-29T12:23:54;23.65;;;21.23;;
58196;SDS011;43999;51.660;5.616;2023-01-29T12:26:37;28.35;;;20.20;;
58196;SDS011;43999;51.660;5.616;2023-01-29T12:29:31;25.30;;;22.75;;
58196;SDS011;43999;51.660;5.616;2023-01-29T12:35:25;23.13;;;20.55;;
58196;SDS011;43999;51.660;5.616;2023-01-29T12:38:34;23.58;;;21.10;;
58196;SDS011;43999;51.660;5.616;2023-01-29T12:44:17;24.25;;;21.83;;
58196;SDS011;43999;51.660;5.616;2023-01-29T12:46:57;25.25;;;22.10;;
58196;SDS011;43999;51.660;5.616;2023-01-29T12:49:34;26.80;;;22.65;;
58196;SDS011;43999;51.660;5.616;2023-01-29T12:58:34;24.73;;;22.17;;
58196;SDS011;43999;51.660;5.616;2023-01-29T13:01:28;24.60;;;19.63;;
58196;SDS011;43999;51.660;5.616;2023-01-29T13:04:30;27.15;;;22.70;;
58196;SDS011;43999;51.660;5.616;2023-01-29T13:10:28;28.83;;;24.77;;
58196;SDS011;43999;51.660;5.616;2023-01-29T13:16:44;25.67;;;20.77;;
58196;SDS011;43999;51.660;5.616;2023-01-29T13:19:30;29.35;;;24.77;;
58196;SDS011;43999;51.660;5.616;2023-01-29T13:22:50;27.85;;;23.65;;
58196;SDS011;43999;51.660;5.616;2023-01-29T13:25:50;30.75;;;27.60;;
58196;SDS011;43999;51.660;5.616;2023-01-29T13:28:28;28.60;;;22.50;;
58196;SDS011;43999;51.660;5.616;2023-01-29T13:34:14;27.63;;;23.23;;
58196;SDS011;43999;51.660;5.616;2023-01-29T13:36:53;28.73;;;24.83;;
58196;SDS011;43999;51.660;5.616;2023-01-29T13:39:52;32.17;;;27.05;;
58196;SDS011;43999;51.660;5.616;2023-01-29T13:42:45;33.03;;;26.63;;
58196;SDS011;43999;51.660;5.616;2023-01-29T13:45:34;33.80;;;24.45;;
58196;SDS011;43999;51.660;5.616;2023-01-29T13:48:56;34.85;;;27.90;;
58196;SDS011;43999;51.660;5.616;2023-01-29T13:51:58;33.47;;;28.67;;
58196;SDS011;43999;51.660;5.616;2023-01-29T13:55:00;34.75;;;27.63;;
58196;SDS011;43999;51.660;5.616;2023-01-29T13:58:15;37.35;;;28.42;;
58196;SDS011;43999;51.660;5.616;2023-01-29T14:01:09;34.45;;;26.15;;
58196;SDS011;43999;51.660;5.616;2023-01-29T14:04:14;33.30;;;29.35;;
58196;SDS011;43999;51.660;5.616;2023-01-29T14:07:37;33.05;;;29.35;;
58196;SDS011;43999;51.660;5.616;2023-01-29T14:10:18;35.50;;;30.13;;
58196;SDS011;43999;51.660;5.616;2023-01-29T14:18:32;29.67;;;25.38;;
58196;SDS011;43999;51.660;5.616;2023-01-29T14:21:21;32.28;;;26.77;;
58196;SDS011;43999;51.660;5.616;2023-01-29T14:24:17;28.70;;;25.50;;
58196;SDS011;43999;51.660;5.616;2023-01-29T14:27:20;32.75;;;26.15;;
58196;SDS011;43999;51.660;5.616;2023-01-29T14:30:04;32.15;;;26.40;;
58196;SDS011;43999;51.660;5.616;2023-01-29T14:32:39;33.40;;;27.05;;
58196;SDS011;43999;51.660;5.616;2023-01-29T14:35:34;29.30;;;25.55;;
58196;SDS011;43999;51.660;5.616;2023-01-29T14:38:26;33.40;;;28.52;;
58196;SDS011;43999;51.660;5.616;2023-01-29T14:41:41;30.95;;;26.88;;
58196;SDS011;43999;51.660;5.616;2023-01-29T14:47:51;33.70;;;26.25;;
58196;SDS011;43999;51.660;5.616;2023-01-29T14:53:03;36.60;;;29.08;;
58196;SDS011;43999;51.660;5.616;2023-01-29T14:56:00;33.78;;;26.98;;
58196;SDS011;43999;51.660;5.616;2023-01-29T14:58:48;29.98;;;24.70;;
58196;SDS011;43999;51.660;5.616;2023-01-29T15:02:39;34.00;;;26.88;;
58196;SDS011;43999;51.660;5.616;2023-01-29T15:05:36;32.33;;;28.85;;
58196;SDS011;43999;51.660;5.616;2023-01-29T15:08:22;35.25;;;29.30;;
58196;SDS011;43999;51.660;5.616;2023-01-29T15:19:17;32.30;;;25.98;;
58196;SDS011;43999;51.660;5.616;2023-01-29T15:22:18;34.78;;;28.10;;
58196;SDS011;43999;51.660;5.616;2023-01-29T15:26:18;34.63;;;27.92;;
58196;SDS011;43999;51.660;5.616;2023-01-29T15:30:00;32.25;;;28.77;;
58196;SDS011;43999;51.660;5.616;2023-01-29T15:32:52;31.88;;;27.40;;
58196;SDS011;43999;51.660;5.616;2023-01-29T15:35:43;38.20;;;29.90;;
58196;SDS011;43999;51.660;5.616;2023-01-29T15:38:35;33.47;;;24.85;;
58196;SDS011;43999;51.660;5.616;2023-01-29T15:41:33;28.27;;;24.83;;
58196;SDS011;43999;51.660;5.616;2023-01-29T15:44:15;38.47;;;27.25;;
58196;SDS011;43999;51.660;5.616;2023-01-29T15:46:53;32.85;;;26.83;;
58196;SDS011;43999;51.660;5.616;2023-01-29T15:49:35;28.95;;;25.55;;
58196;SDS011;43999;51.660;5.616;2023-01-29T15:52:07;31.20;;;25.98;;
58196;SDS011;43999;51.660;5.616;2023-01-29T15:55:03;31.63;;;27.55;;
58196;SDS011;43999;51.660;5.616;2023-01-29T15:57:34;26.23;;;21.33;;
58196;SDS011;43999;51.660;5.616;2023-01-29T16:00:24;27.25;;;22.55;;
58196;SDS011;43999;51.660;5.616;2023-01-29T16:03:35;28.85;;;23.50;;
58196;SDS011;43999;51.660;5.616;2023-01-29T16:06:13;31.40;;;24.60;;
58196;SDS011;43999;51.660;5.616;2023-01-29T16:09:24;24.90;;;22.33;;
58196;SDS011;43999;51.660;5.616;2023-01-29T16:12:41;30.30;;;23.40;;
58196;SDS011;43999;51.660;5.616;2023-01-29T16:15:36;29.92;;;23.40;;
58196;SDS011;43999;51.660;5.616;2023-01-29T16:21:56;32.00;;;25.08;;
58196;SDS011;43999;51.660;5.616;2023-01-29T16:25:39;26.77;;;21.92;;
58196;SDS011;43999;51.660;5.616;2023-01-29T16:28:09;31.30;;;23.05;;
58196;SDS011;43999;51.660;5.616;2023-01-29T16:34:37;27.15;;;22.20;;
58196;SDS011;43999;51.660;5.616;2023-01-29T16:40:20;31.90;;;24.92;;
58196;SDS011;43999;51.660;5.616;2023-01-29T16:52:17;25.50;;;20.58;;
58196;SDS011;43999;51.660;5.616;2023-01-29T16:57:56;24.35;;;20.35;;
58196;SDS011;43999;51.660;5.616;2023-01-29T17:00:46;28.55;;;21.85;;
58196;SDS011;43999;51.660;5.616;2023-01-29T17:04:13;25.30;;;20.25;;
58196;SDS011;43999;51.660;5.616;2023-01-29T17:06:56;23.05;;;20.40;;
58196;SDS011;43999;51.660;5.616;2023-01-29T17:10:04;28.27;;;22.05;;
58196;SDS011;43999;51.660;5.616;2023-01-29T17:13:33;31.30;;;24.15;;
58196;SDS011;43999;51.660;5.616;2023-01-29T17:18:55;28.27;;;22.65;;
58196;SDS011;43999;51.660;5.616;2023-01-29T17:21:28;30.55;;;23.23;;
58196;SDS011;43999;51.660;5.616;2023-01-29T17:23:59;28.17;;;23.40;;
58196;SDS011;43999;51.660;5.616;2023-01-29T17:26:56;31.40;;;24.52;;
58196;SDS011;43999;51.660;5.616;2023-01-29T17:30:09;29.23;;;24.20;;
58196;SDS011;43999;51.660;5.616;2023-01-29T17:33:18;25.90;;;19.98;;
58196;SDS011;43999;51.660;5.616;2023-01-29T17:35:56;22.95;;;19.05;;
58196;SDS011;43999;51.660;5.616;2023-01-29T17:38:58;29.38;;;22.88;;
58196;SDS011;43999;51.660;5.616;2023-01-29T17:41:29;36.15;;;26.73;;
58196;SDS011;43999;51.660;5.616;2023-01-29T17:44:01;33.65;;;27.58;;
58196;SDS011;43999;51.660;5.616;2023-01-29T17:46:35;26.77;;;23.90;;
58196;SDS011;43999;51.660;5.616;2023-01-29T17:49:11;27.00;;;21.42;;
58196;SDS011;43999;51.660;5.616;2023-01-29T17:52:14;26.40;;;20.55;;
58196;SDS011;43999;51.660;5.616;2023-01-29T17:55:15;27.50;;;22.40;;
58196;SDS011;43999;51.660;5.616;2023-01-29T17:58:08;26.33;;;22.45;;
58196;SDS011;43999;51.660;5.616;2023-01-29T18:00:57;28.83;;;21.30;;
58196;SDS011;43999;51.660;5.616;2023-01-29T18:03:37;33.67;;;26.00;;
58196;SDS011;43999;51.660;5.616;2023-01-29T18:06:06;27.02;;;22.63;;
58196;SDS011;43999;51.660;5.616;2023-01-29T18:08:52;27.75;;;22.73;;
58196;SDS011;43999;51.660;5.616;2023-01-29T18:11:39;28.85;;;23.08;;
58196;SDS011;43999;51.660;5.616;2023-01-29T18:14:13;26.40;;;22.05;;
58196;SDS011;43999;51.660;5.616;2023-01-29T18:16:45;27.77;;;24.75;;
58196;SDS011;43999;51.660;5.616;2023-01-29T18:22:02;30.13;;;23.27;;
58196;SDS011;43999;51.660;5.616;2023-01-29T18:24:30;24.08;;;18.85;;
58196;SDS011;43999;51.660;5.616;2023-01-29T18:27:07;29.52;;;23.17;;
58196;SDS011;43999;51.660;5.616;2023-01-29T18:29:51;24.63;;;21.58;;
58196;SDS011;43999;51.660;5.616;2023-01-29T18:32:40;25.23;;;20.27;;
58196;SDS011;43999;51.660;5.616;2023-01-29T18:35:13;28.17;;;23.20;;
58196;SDS011;43999;51.660;5.616;2023-01-29T18:37:44;28.30;;;23.35;;
58196;SDS011;43999;51.660;5.616;2023-01-29T18:40:17;27.05;;;22.92;;